Time;durP1;ratioP1;P1;durP2;ratioP2;P2;SDS_P1;SDS_P2;PMS_P1;PMS_P2;Temp;Humidity;BMP_temperature;BMP_pressure;BME280_temperature;BME280_humidity;BME280_pressure;Samples;Min_cycle;Max_cycle;Signal;HPM_P1;HPM_P2
2022/10/02 00:00:03;;;;;;;1.67;0.63;;;;;;;12.70;98.08;95741.37;4403866;32;20248;-64
2022/10/02 00:02:34;;;;;;;0.13;0.13;;;;;;;12.71;97.67;95740.28;4377953;32;20211;-64
2022/10/02 00:05:14;;;;;;;0.10;0.10;;;;;;;12.63;98.98;95737.53;4364554;32;20180;-64
2022/10/02 00:07:42;;;;;;;0.50;0.20;;;;;;;12.59;99.42;95741.88;4387003;32;20176;-63
2022/10/02 00:10:31;;;;;;;0.10;0.10;;;;;;;12.54;100.00;95745.41;4404031;32;20262;-64
2022/10/02 00:13:22;;;;;;;0.53;0.27;;;;;;;12.60;100.00;95743.47;4388867;32;20194;-64
2022/10/02 00:15:51;;;;;;;0.37;0.23;;;;;;;12.60;100.00;95738.13;4396216;32;20187;-64
2022/10/02 00:18:25;;;;;;;0.20;0.20;;;;;;;12.65;100.00;95746.81;4389980;32;20188;-64
2022/10/02 00:21:25;;;;;;;0.50;0.50;;;;;;;12.57;100.00;95742.16;4395134;32;20204;-64
2022/10/02 00:23:58;;;;;;;0.23;0.23;;;;;;;12.66;100.00;95747.59;4386946;32;20198;-65
2022/10/02 00:27:16;;;;;;;0.63;0.43;;;;;;;12.65;100.00;95757.47;4402928;32;20180;-64
2022/10/02 00:30:09;;;;;;;0.30;0.30;;;;;;;12.74;100.00;95763.66;4321221;32;20328;-64
2022/10/02 00:33:08;;;;;;;0.17;0.17;;;;;;;12.70;100.00;95775.97;4316977;32;20216;-64
2022/10/02 00:35:52;;;;;;;0.30;0.30;;;;;;;12.59;100.00;95779.13;4346986;32;20299;-64
2022/10/02 00:38:31;;;;;;;3.57;1.17;;;;;;;12.60;100.00;95788.72;4345680;32;20189;-65
2022/10/02 00:41:49;;;;;;;0.30;0.30;;;;;;;12.57;100.00;95797.28;4342692;32;20299;-64
2022/10/02 00:44:45;;;;;;;1.03;0.40;;;;;;;12.44;100.00;95798.84;4322437;32;20192;-64
2022/10/02 00:47:32;;;;;;;0.30;0.30;;;;;;;12.49;100.00;95800.59;4366881;32;20272;-64
2022/10/02 00:50:14;;;;;;;0.30;0.30;;;;;;;12.39;100.00;95812.22;4376634;32;20209;-64
2022/10/02 00:52:59;;;;;;;0.27;0.27;;;;;;;12.51;100.00;95806.41;4395133;32;20188;-64
2022/10/02 00:56:16;;;;;;;0.23;0.23;;;;;;;12.41;100.00;95809.28;4376162;32;20219;-64
2022/10/02 00:59:13;;;;;;;0.33;0.33;;;;;;;12.35;100.00;95795.25;4328318;32;20240;-64
2022/10/02 01:01:58;;;;;;;0.03;0.03;;;;;;;12.28;100.00;95805.47;4408372;32;20198;-64
2022/10/02 01:04:33;;;;;;;0.30;0.30;;;;;;;12.31;100.00;95804.91;4405054;32;20198;-64
2022/10/02 01:07:03;;;;;;;0.17;0.17;;;;;;;12.34;100.00;95799.78;4425418;32;20183;-64
2022/10/02 01:09:31;;;;;;;3.40;0.97;;;;;;;12.23;100.00;95793.06;4398209;32;20265;-64
2022/10/02 01:12:02;;;;;;;0.30;0.27;;;;;;;12.30;100.00;95785.50;4391133;32;20179;-64
2022/10/02 01:14:58;;;;;;;3.70;0.70;;;;;;;12.15;100.00;95776.97;4408423;32;20221;-64
2022/10/02 01:17:34;;;;;;;0.10;0.10;;;;;;;12.28;100.00;95786.84;4417019;32;20204;-64
2022/10/02 01:20:04;;;;;;;0.20;0.20;;;;;;;12.38;100.00;95789.34;4397812;32;20188;-64
2022/10/02 01:23:13;;;;;;;0.10;0.10;;;;;;;12.50;100.00;95797.66;4400238;32;20271;-64
2022/10/02 01:25:41;;;;;;;5.77;0.40;;;;;;;12.50;100.00;95794.19;4365942;32;20184;-63
2022/10/02 01:28:08;;;;;;;0.30;0.30;;;;;;;12.55;100.00;95810.09;4387387;32;20188;-64
2022/10/02 01:30:38;;;;;;;0.37;0.37;;;;;;;12.56;100.00;95815.13;4415528;32;21666;-64
2022/10/02 01:33:06;;;;;;;0.23;0.23;;;;;;;12.58;100.00;95815.63;4363003;32;20366;-64
2022/10/02 01:35:35;;;;;;;2.53;0.63;;;;;;;12.59;100.00;95813.75;4390819;32;20195;-64
2022/10/02 01:38:07;;;;;;;0.30;0.30;;;;;;;12.61;100.00;95820.34;4392486;32;20226;-64
2022/10/02 01:40:41;;;;;;;0.17;0.17;;;;;;;12.56;100.00;95819.66;4395545;32;20243;-64
2022/10/02 01:43:34;;;;;;;6.17;1.17;;;;;;;12.54;100.00;95811.94;4390897;32;20175;-64
2022/10/02 01:46:21;;;;;;;0.47;0.47;;;;;;;12.59;100.00;95813.75;4413164;32;20180;-64
2022/10/02 01:49:24;;;;;;;0.20;0.20;;;;;;;12.64;100.00;95811.00;4376069;32;20294;-64
2022/10/02 01:52:26;;;;;;;1.37;0.40;;;;;;;12.64;100.00;95811.00;4385223;32;20330;-64
2022/10/02 01:55:00;;;;;;;0.67;0.67;;;;;;;12.66;100.00;95800.84;4392186;32;20222;-64
2022/10/02 01:58:04;;;;;;;3.30;0.40;;;;;;;12.75;100.00;95799.06;4381635;32;20199;-64
2022/10/02 02:00:44;;;;;;;0.17;0.17;;;;;;;12.66;100.00;95791.00;4392379;32;20203;-64
2022/10/02 02:03:32;;;;;;;0.20;0.20;;;;;;;12.77;100.00;95793.44;4380621;32;20196;-64
2022/10/02 02:06:26;;;;;;;0.20;0.20;;;;;;;12.74;100.00;95787.63;4334956;32;20203;-64
2022/10/02 02:09:09;;;;;;;0.10;0.10;;;;;;;12.51;100.00;95774.47;4361729;32;20189;-64
2022/10/02 02:11:40;;;;;;;0.13;0.13;;;;;;;12.46;100.00;95788.69;4387938;32;20248;-64
2022/10/02 02:14:34;;;;;;;0.27;0.27;;;;;;;12.39;100.00;95791.72;4395403;32;20207;-64
2022/10/02 02:17:11;;;;;;;0.10;0.10;;;;;;;12.37;100.00;95801.06;4385180;32;20210;-64
2022/10/02 02:20:10;;;;;;;0.37;0.17;;;;;;;12.33;100.00;95808.06;4384858;32;20211;-64
2022/10/02 02:22:45;;;;;;;0.20;0.20;;;;;;;12.43;100.00;95807.91;4389446;32;20182;-64
2022/10/02 02:25:16;;;;;;;0.13;0.13;;;;;;;12.40;100.00;95803.16;4384108;32;20187;-64
2022/10/02 02:27:50;;;;;;;0.37;0.37;;;;;;;12.36;100.00;95808.28;4361423;32;20192;-64
2022/10/02 02:30:19;;;;;;;0.30;0.30;;;;;;;12.38;100.00;95806.09;4312754;32;20303;-64
2022/10/02 02:32:51;;;;;;;0.83;0.37;;;;;;;12.29;100.00;95807.06;4388957;32;20240;-64
2022/10/02 02:35:28;;;;;;;0.40;0.40;;;;;;;12.30;100.00;95793.47;4393559;32;20260;-64
2022/10/02 02:38:01;;;;;;;1.30;0.37;;;;;;;12.34;100.00;95802.44;4397813;32;20247;-64
2022/10/02 02:40:32;;;;;;;0.10;0.10;;;;;;;12.30;100.00;95803.31;4389568;32;20194;-64
2022/10/02 02:43:11;;;;;;;0.30;0.30;;;;;;;12.31;100.00;95807.56;4377235;32;20252;-64
2022/10/02 02:45:45;;;;;;;0.17;0.17;;;;;;;12.36;100.00;95807.47;4394459;32;20184;-63
2022/10/02 02:48:28;;;;;;;0.20;0.20;;;;;;;12.40;100.00;95805.81;4351091;32;20192;-63
2022/10/02 02:51:00;;;;;;;0.10;0.10;;;;;;;12.38;100.00;95807.97;4391894;32;20188;-64
2022/10/02 02:53:45;;;;;;;0.00;0.00;;;;;;;12.36;100.00;95810.94;4366049;32;20197;-64
2022/10/02 02:56:17;;;;;;;1.17;0.67;;;;;;;12.34;100.00;95805.09;4392748;32;20193;-63
2022/10/02 02:59:10;;;;;;;0.17;0.17;;;;;;;12.44;100.00;95800.72;4369972;32;20191;-64
2022/10/02 03:01:36;;;;;;;2.60;0.87;;;;;;;12.49;100.00;95795.28;4399600;32;20183;-63
2022/10/02 03:04:02;;;;;;;0.23;0.20;;;;;;;12.36;100.00;95804.81;4395880;32;20219;-64
2022/10/02 03:06:45;;;;;;;0.30;0.30;;;;;;;12.42;100.00;95795.69;4396783;32;20184;-64
2022/10/02 03:09:17;;;;;;;0.60;0.43;;;;;;;12.46;100.00;95802.00;4394514;32;20206;-63
2022/10/02 03:12:12;;;;;;;1.50;0.40;;;;;;;12.52;100.00;95811.44;4350566;32;20205;-63
2022/10/02 03:15:29;;;;;;;0.20;0.20;;;;;;;12.60;100.00;95810.78;4377474;32;20199;-64
2022/10/02 03:18:15;;;;;;;0.37;0.37;;;;;;;12.56;100.00;95814.31;4347701;32;20232;-64
2022/10/02 03:21:00;;;;;;;0.20;0.20;;;;;;;12.48;100.00;95818.44;4381416;32;20183;-63
2022/10/02 03:24:13;;;;;;;3.00;0.67;;;;;;;12.50;100.00;95810.16;4374711;32;20202;-63
2022/10/02 03:26:52;;;;;;;0.30;0.30;;;;;;;12.58;100.00;95809.50;4346111;32;20256;-64
2022/10/02 03:29:34;;;;;;;0.97;0.57;;;;;;;12.66;100.00;95811.50;4382814;32;20192;-64
2022/10/02 03:32:03;;;;;;;0.67;0.13;;;;;;;12.66;100.00;95811.50;4365255;32;20188;-64
2022/10/02 03:34:33;;;;;;;0.53;0.53;;;;;;;12.58;100.00;95807.63;4390279;32;20200;-64
2022/10/02 03:37:01;;;;;;;0.30;0.30;;;;;;;12.61;100.00;95808.91;4396540;32;20202;-64
2022/10/02 03:39:28;;;;;;;0.30;0.30;;;;;;;12.63;100.00;95801.44;4372690;32;20188;-63
2022/10/02 03:41:54;;;;;;;1.37;0.60;;;;;;;12.65;100.00;95799.28;4364105;32;20207;-64
2022/10/02 03:44:24;;;;;;;0.40;0.40;;;;;;;12.72;100.00;95815.63;4398314;32;20180;-64
2022/10/02 03:46:49;;;;;;;0.20;0.20;;;;;;;12.61;100.00;95814.25;4366467;32;20222;-64
2022/10/02 03:49:17;;;;;;;0.10;0.10;;;;;;;12.62;100.00;95815.81;4387092;32;20192;-64
2022/10/02 03:51:43;;;;;;;2.40;0.50;;;;;;;12.61;100.00;95808.91;4398954;32;20191;-63
2022/10/02 03:54:19;;;;;;;0.37;0.23;;;;;;;12.56;100.00;95798.34;4360224;32;20234;-66
2022/10/02 03:57:03;;;;;;;0.23;0.23;;;;;;;12.55;100.00;95800.22;4383571;32;20218;-67
2022/10/02 03:59:52;;;;;;;0.00;0.00;;;;;;;12.54;100.00;95797.84;4376668;32;20191;-66
2022/10/02 04:02:42;;;;;;;1.17;0.60;;;;;;;12.53;100.00;95790.94;4391125;32;20207;-67
2022/10/02 04:05:24;;;;;;;0.20;0.20;;;;;;;12.50;100.00;95783.56;4392024;32;20196;-66
2022/10/02 04:08:08;;;;;;;0.43;0.43;;;;;;;12.53;100.00;95801.59;4370201;32;20211;-64
2022/10/02 04:10:55;;;;;;;0.83;0.50;;;;;;;12.57;100.00;95795.41;4399040;32;20271;-64
2022/10/02 04:13:40;;;;;;;0.47;0.43;;;;;;;12.64;100.00;95792.38;4386623;32;20188;-64
2022/10/02 04:16:28;;;;;;;0.10;0.10;;;;;;;12.60;100.00;95792.16;4403673;32;20226;-64
2022/10/02 04:19:28;;;;;;;0.77;0.37;;;;;;;12.65;100.00;95797.41;4364339;32;20235;-64
2022/10/02 04:22:13;;;;;;;0.30;0.30;;;;;;;12.55;100.00;95799.44;4394567;32;20216;-64
2022/10/02 04:24:59;;;;;;;1.03;0.47;;;;;;;12.60;100.00;95796.69;4410171;32;20196;-63
2022/10/02 04:27:53;;;;;;;0.97;0.60;;;;;;;12.54;100.00;95797.84;4385397;32;20200;-64
2022/10/02 04:30:19;;;;;;;0.10;0.10;;;;;;;12.57;100.00;95786.63;4387293;32;20192;-64
2022/10/02 04:32:45;;;;;;;1.00;0.50;;;;;;;12.74;100.00;95792.16;4396683;32;20202;-64
2022/10/02 04:36:01;;;;;;;0.23;0.23;;;;;;;12.70;100.00;95793.81;4372867;32;20215;-63
2022/10/02 04:38:58;;;;;;;0.20;0.20;;;;;;;12.66;100.00;95785.66;4385653;32;20188;-64
2022/10/02 04:41:54;;;;;;;0.10;0.10;;;;;;;12.61;100.00;95787.63;4399985;32;20242;-64
2022/10/02 04:44:50;;;;;;;2.00;0.40;;;;;;;12.56;100.00;95785.84;4383385;32;20196;-64
2022/10/02 04:47:53;;;;;;;1.03;0.43;;;;;;;12.59;100.00;95795.09;4400946;32;20202;-64
2022/10/02 04:50:50;;;;;;;0.47;0.40;;;;;;;12.59;100.00;95787.13;4388960;32;20244;-64
2022/10/02 04:53:42;;;;;;;0.20;0.20;;;;;;;12.68;100.00;95788.78;4353110;32;20200;-64
2022/10/02 04:56:45;;;;;;;1.07;0.43;;;;;;;12.67;100.00;95789.13;4393012;32;20185;-63
2022/10/02 04:59:51;;;;;;;0.40;0.40;;;;;;;12.69;100.00;95787.72;4372094;32;20184;-63
2022/10/02 05:02:53;;;;;;;0.97;0.30;;;;;;;12.70;100.00;95783.19;4382575;32;20176;-64
2022/10/02 05:05:47;;;;;;;0.43;0.43;;;;;;;12.75;100.00;95788.41;4343384;32;20248;-64
2022/10/02 05:08:35;;;;;;;0.10;0.10;;;;;;;12.68;100.00;95772.03;4402748;32;20172;-63
2022/10/02 05:11:10;;;;;;;0.23;0.23;;;;;;;12.68;100.00;95774.69;4397852;32;20172;-63
2022/10/02 05:13:53;;;;;;;0.20;0.20;;;;;;;12.65;100.00;95786.75;4408845;32;20241;-63
2022/10/02 05:16:53;;;;;;;0.10;0.10;;;;;;;12.76;100.00;95782.00;4400419;32;20199;-64
2022/10/02 05:19:36;;;;;;;0.20;0.20;;;;;;;12.69;100.00;95789.59;4398390;32;20188;-64
2022/10/02 05:22:07;;;;;;;0.37;0.37;;;;;;;12.70;100.00;95797.28;4407808;32;20197;-64
2022/10/02 05:24:45;;;;;;;0.30;0.30;;;;;;;12.75;100.00;95793.75;4382090;32;20193;-63
2022/10/02 05:27:13;;;;;;;0.30;0.30;;;;;;;12.78;100.00;95798.47;4389139;32;20199;-63
2022/10/02 05:30:11;;;;;;;0.20;0.20;;;;;;;12.67;100.00;95786.47;4397593;32;20193;-63
2022/10/02 05:33:07;;;;;;;0.50;0.50;;;;;;;12.62;100.00;95790.00;4395353;32;20259;-64
2022/10/02 05:35:48;;;;;;;0.20;0.20;;;;;;;12.59;100.00;95787.13;4395013;32;20208;-64
2022/10/02 05:39:01;;;;;;;0.60;0.60;;;;;;;12.62;100.00;95795.31;4383586;32;20183;-64
2022/10/02 05:41:42;;;;;;;0.40;0.20;;;;;;;12.70;100.00;95794.63;4344135;32;20284;-64
2022/10/02 05:44:34;;;;;;;0.40;0.40;;;;;;;12.75;100.00;95796.41;4387583;32;20187;-64
2022/10/02 05:47:29;;;;;;;1.70;0.50;;;;;;;12.70;100.00;95794.63;4388285;32;20196;-64
2022/10/02 05:50:20;;;;;;;0.67;0.53;;;;;;;12.76;100.00;95789.22;4392179;32;20295;-64
2022/10/02 05:52:58;;;;;;;1.40;0.30;;;;;;;12.81;100.00;95779.25;4392173;32;20188;-64
2022/10/02 05:55:43;;;;;;;2.63;0.30;;;;;;;12.78;100.00;95782.50;4392047;32;20230;-64
2022/10/02 05:58:26;;;;;;;0.97;0.57;;;;;;;12.68;100.00;95777.34;4393252;32;20191;-64
2022/10/02 06:01:27;;;;;;;0.33;0.33;;;;;;;12.64;100.00;95787.84;4392143;32;20191;-64
2022/10/02 06:03:58;;;;;;;0.30;0.30;;;;;;;12.69;100.00;95793.03;4392950;32;20188;-64
2022/10/02 06:06:38;;;;;;;0.40;0.40;;;;;;;12.71;100.00;95795.41;4397528;32;20253;-64
2022/10/02 06:09:15;;;;;;;0.10;0.10;;;;;;;12.61;100.00;95800.94;4393243;32;20457;-64
2022/10/02 06:11:47;;;;;;;0.27;0.27;;;;;;;12.68;100.00;95801.31;4402957;32;20254;-64
2022/10/02 06:14:42;;;;;;;0.20;0.20;;;;;;;12.64;100.00;95805.66;4410598;32;20207;-64
2022/10/02 06:17:12;;;;;;;2.00;0.67;;;;;;;12.62;100.00;95805.19;4388213;32;20196;-63
2022/10/02 06:20:05;;;;;;;0.60;0.60;;;;;;;12.69;100.00;95810.88;4400535;32;20295;-64
2022/10/02 06:22:39;;;;;;;0.53;0.53;;;;;;;12.60;100.00;95810.78;4401276;32;20184;-64
2022/10/02 06:25:12;;;;;;;1.70;0.23;;;;;;;12.72;100.00;95816.41;4397049;32;20184;-64
2022/10/02 06:27:45;;;;;;;0.37;0.37;;;;;;;12.70;100.00;95815.91;4371275;32;20200;-64
2022/10/02 06:30:21;;;;;;;0.20;0.20;;;;;;;12.72;100.00;95818.28;4356124;32;20199;-64
2022/10/02 06:32:54;;;;;;;0.30;0.30;;;;;;;12.71;100.00;95819.38;4375823;32;20194;-64
2022/10/02 06:35:50;;;;;;;0.37;0.30;;;;;;;12.76;100.00;95815.81;4382786;32;20185;-64
2022/10/02 06:38:44;;;;;;;0.20;0.20;;;;;;;12.66;100.00;95825.59;4399472;32;20211;-64
2022/10/02 06:41:40;;;;;;;0.37;0.37;;;;;;;12.66;100.00;95816.81;4400858;32;20187;-64
2022/10/02 06:44:16;;;;;;;0.30;0.30;;;;;;;12.62;100.00;95821.16;4357489;32;20193;-64
2022/10/02 06:46:52;;;;;;;0.67;0.67;;;;;;;12.65;100.00;95825.88;4392670;32;20275;-64
2022/10/02 06:49:46;;;;;;;0.23;0.23;;;;;;;12.65;100.00;95820.56;4392496;32;20262;-64
2022/10/02 06:52:23;;;;;;;0.10;0.10;;;;;;;12.66;100.00;95816.81;4384119;32;20199;-64
2022/10/02 06:55:16;;;;;;;0.47;0.47;;;;;;;12.64;100.00;95811.00;4373911;32;20184;-64
2022/10/02 06:58:17;;;;;;;0.23;0.23;;;;;;;12.56;100.00;95815.13;4379231;32;20223;-64
2022/10/02 07:01:05;;;;;;;0.93;0.43;;;;;;;12.59;100.00;95824.37;4368869;32;20188;-63
2022/10/02 07:03:46;;;;;;;1.93;1.03;;;;;;;12.60;100.00;95818.78;4387248;32;20193;-64
2022/10/02 07:06:52;;;;;;;5.40;0.83;;;;;;;12.65;100.00;95831.22;4391667;32;20188;-64
2022/10/02 07:09:50;;;;;;;1.30;0.37;;;;;;;12.71;100.00;95824.69;4391177;32;20257;-64
2022/10/02 07:13:14;;;;;;;0.80;0.60;;;;;;;12.70;100.00;95834.56;4368774;32;20191;-64
2022/10/02 07:16:20;;;;;;;1.10;0.73;;;;;;;12.68;100.00;95830.59;4309440;33;20194;-64
2022/10/02 07:19:20;;;;;;;2.83;0.60;;;;;;;12.62;100.00;95824.59;4275799;33;20190;-64
2022/10/02 07:22:07;;;;;;;0.73;0.73;;;;;;;12.62;100.00;95805.97;4390657;32;20191;-64
2022/10/02 07:25:09;;;;;;;0.37;0.37;;;;;;;12.59;100.00;95811.88;4394070;32;20196;-64
2022/10/02 07:27:50;;;;;;;0.60;0.60;;;;;;;12.67;100.00;95829.03;4386024;32;20184;-64
2022/10/02 07:30:17;;;;;;;2.83;0.70;;;;;;;12.61;100.00;95822.22;4381062;32;20199;-64
2022/10/02 07:33:42;;;;;;;0.10;0.10;;;;;;;12.69;100.00;95817.00;4332424;32;20264;-64
2022/10/02 07:36:53;;;;;;;0.50;0.50;;;;;;;12.82;100.00;95823.44;4324525;32;20314;-63
2022/10/02 07:39:40;;;;;;;0.30;0.30;;;;;;;12.78;100.00;95824.31;4325489;32;20182;-64
2022/10/02 07:42:31;;;;;;;0.30;0.30;;;;;;;12.70;100.00;95831.09;4285916;32;20191;-64
2022/10/02 07:45:26;;;;;;;0.20;0.20;;;;;;;12.73;100.00;95822.53;4371201;32;20191;-63
2022/10/02 07:48:26;;;;;;;0.40;0.40;;;;;;;12.84;100.00;95821.28;4391078;32;20184;-64
2022/10/02 07:51:47;;;;;;;0.23;0.23;;;;;;;12.89;100.00;95815.81;4394984;32;20210;-64
2022/10/02 07:54:38;;;;;;;2.97;0.90;;;;;;;12.89;100.00;95821.16;4365579;32;20193;-64
2022/10/02 07:57:40;;;;;;;0.33;0.33;;;;;;;12.95;100.00;95817.31;4387368;32;20316;-64
2022/10/02 08:00:12;;;;;;;0.83;0.50;;;;;;;12.90;100.00;95806.75;4387813;32;20183;-64
2022/10/02 08:02:56;;;;;;;0.87;0.70;;;;;;;12.89;100.00;95807.84;4357244;32;20185;-64
2022/10/02 08:05:31;;;;;;;0.00;0.00;;;;;;;12.87;100.00;95799.38;4389625;32;20184;-64
2022/10/02 08:08:03;;;;;;;0.23;0.23;;;;;;;13.00;100.00;95809.25;4389333;32;20191;-64
2022/10/02 08:10:41;;;;;;;0.30;0.30;;;;;;;12.95;100.00;95809.34;4397498;32;20210;-63
2022/10/02 08:13:52;;;;;;;0.80;0.80;;;;;;;13.01;100.00;95808.16;4333195;32;20282;-64
2022/10/02 08:16:23;;;;;;;0.70;0.70;;;;;;;13.04;100.00;95802.25;4331947;32;20192;-65
2022/10/02 08:19:10;;;;;;;0.53;0.53;;;;;;;12.97;100.00;95795.72;4386427;32;20184;-65
2022/10/02 08:21:45;;;;;;;0.77;0.30;;;;;;;13.09;100.00;95798.69;4355037;32;20192;-64
2022/10/02 08:24:35;;;;;;;0.40;0.40;;;;;;;13.06;100.00;95792.09;4384541;32;20198;-64
2022/10/02 08:27:11;;;;;;;0.43;0.43;;;;;;;13.11;100.00;95795.72;4345082;32;20203;-64
2022/10/02 08:29:56;;;;;;;2.80;0.97;;;;;;;13.18;100.00;95788.16;4388549;32;20180;-64
2022/10/02 08:32:35;;;;;;;0.60;0.60;;;;;;;13.24;100.00;95790.41;4398529;32;20195;-64
2022/10/02 08:35:11;;;;;;;0.43;0.43;;;;;;;13.25;100.00;95788.53;4366789;32;20215;-64
2022/10/02 08:38:19;;;;;;;0.97;0.87;;;;;;;13.06;100.00;95788.63;4393765;32;20212;-64
2022/10/02 08:41:07;;;;;;;1.03;0.60;;;;;;;13.21;100.00;95795.53;4384706;32;20184;-65
2022/10/02 08:44:10;;;;;;;2.73;0.80;;;;;;;13.24;100.00;95785.09;4388173;32;20223;-64
2022/10/02 08:47:26;;;;;;;0.53;0.53;;;;;;;13.16;100.00;95782.31;4382103;32;20184;-65
2022/10/02 08:50:36;;;;;;;0.53;0.53;;;;;;;13.28;100.00;95780.75;4360941;32;20193;-64
2022/10/02 08:53:40;;;;;;;0.40;0.40;;;;;;;13.42;100.00;95772.72;4372159;32;20207;-64
2022/10/02 08:56:25;;;;;;;1.20;0.67;;;;;;;13.49;100.00;95767.78;4376338;32;20180;-64
2022/10/02 08:59:25;;;;;;;3.50;0.70;;;;;;;13.54;100.00;95772.97;4413108;32;20188;-64
2022/10/02 09:02:26;;;;;;;0.53;0.53;;;;;;;13.56;100.00;95768.13;4390422;32;20204;-63
2022/10/02 09:05:13;;;;;;;0.77;0.67;;;;;;;13.57;100.00;95760.91;4396299;32;20192;-64
2022/10/02 09:08:07;;;;;;;0.30;0.30;;;;;;;13.62;100.00;95758.94;4372130;32;20188;-64
2022/10/02 09:10:51;;;;;;;1.13;0.90;;;;;;;13.62;100.00;95761.59;4392189;32;20181;-64
2022/10/02 09:13:54;;;;;;;1.27;1.20;;;;;;;13.58;100.00;95747.28;4374653;32;20188;-64
2022/10/02 09:16:50;;;;;;;2.53;0.97;;;;;;;13.71;100.00;95743.81;4381804;32;20233;-64
2022/10/02 09:19:19;;;;;;;0.33;0.33;;;;;;;13.76;100.00;95745.53;4339403;32;20234;-65
2022/10/02 09:22:00;;;;;;;0.27;0.27;;;;;;;13.81;100.00;95733.97;4401534;32;20299;-65
2022/10/02 09:25:04;;;;;;;0.47;0.47;;;;;;;13.80;100.00;95722.53;4407972;32;20184;-65
2022/10/02 09:28:03;;;;;;;0.90;0.90;;;;;;;13.84;100.00;95728.81;4397898;32;20185;-64
2022/10/02 09:31:05;;;;;;;0.30;0.30;;;;;;;13.89;100.00;95725.25;4391154;32;20195;-64
2022/10/02 09:34:08;;;;;;;0.60;0.60;;;;;;;13.94;100.00;95731.22;4362032;32;20187;-64
2022/10/02 09:37:12;;;;;;;0.33;0.33;;;;;;;13.98;100.00;95713.53;4374509;32;20197;-64
2022/10/02 09:40:07;;;;;;;0.50;0.50;;;;;;;14.11;100.00;95725.25;4388246;32;20226;-64
2022/10/02 09:43:02;;;;;;;0.30;0.30;;;;;;;14.09;100.00;95714.09;4392865;32;20207;-64
2022/10/02 09:45:42;;;;;;;0.30;0.30;;;;;;;14.06;100.00;95704.81;4383458;32;20214;-65
2022/10/02 09:48:52;;;;;;;0.40;0.40;;;;;;;14.09;100.00;95703.41;4404629;32;20180;-64
2022/10/02 09:51:55;;;;;;;2.33;0.87;;;;;;;14.14;100.00;95697.13;4354007;32;20230;-65
2022/10/02 09:54:58;;;;;;;0.47;0.47;;;;;;;14.19;100.00;95687.13;4390966;32;20187;-64
2022/10/02 09:57:53;;;;;;;0.30;0.30;;;;;;;14.20;100.00;95690.59;4387413;32;20428;-65
2022/10/02 10:00:45;;;;;;;0.40;0.40;;;;;;;14.17;100.00;95683.97;4373203;32;20188;-65
2022/10/02 10:03:37;;;;;;;0.57;0.57;;;;;;;14.20;100.00;95675.34;4363020;32;20260;-65
2022/10/02 10:06:30;;;;;;;1.20;0.67;;;;;;;14.26;100.00;95676.81;4368266;32;20236;-64
2022/10/02 10:09:33;;;;;;;0.50;0.50;;;;;;;14.31;100.00;95671.34;4385098;32;20293;-64
2022/10/02 10:12:30;;;;;;;0.60;0.60;;;;;;;14.38;100.00;95673.56;4399270;32;20255;-64
2022/10/02 10:15:33;;;;;;;0.50;0.37;;;;;;;14.46;100.00;95666.72;4397456;32;20244;-64
2022/10/02 10:18:16;;;;;;;0.77;0.77;;;;;;;14.38;100.00;95668.22;4363966;32;20263;-64
2022/10/02 10:21:03;;;;;;;0.53;0.53;;;;;;;14.43;100.00;95666.22;4372339;32;20192;-64
2022/10/02 10:24:06;;;;;;;0.53;0.53;;;;;;;14.52;100.00;95662.81;4384491;32;20238;-64
2022/10/02 10:27:02;;;;;;;5.80;0.90;;;;;;;14.54;100.00;95663.28;4374532;32;20199;-64
2022/10/02 10:29:53;;;;;;;1.83;1.20;;;;;;;14.61;100.00;95660.94;4403452;32;20196;-65
2022/10/02 10:32:54;;;;;;;0.30;0.30;;;;;;;14.62;100.00;95652.62;4378578;32;20212;-65
2022/10/02 10:35:46;;;;;;;1.03;0.67;;;;;;;14.73;100.00;95653.12;4386565;32;20226;-64
2022/10/02 10:38:50;;;;;;;1.73;0.73;;;;;;;14.76;100.00;95649.81;4390164;32;20275;-65
2022/10/02 10:41:31;;;;;;;0.60;0.50;;;;;;;14.85;100.00;95637.28;4380355;32;20240;-65
2022/10/02 10:44:28;;;;;;;0.33;0.33;;;;;;;14.85;100.00;95636.47;4373947;32;20188;-65
2022/10/02 10:47:28;;;;;;;0.10;0.10;;;;;;;14.90;100.00;95639.00;4366744;32;20208;-65
2022/10/02 10:50:59;;;;;;;0.20;0.20;;;;;;;14.89;100.00;95632.88;4382677;32;20207;-64
2022/10/02 10:53:50;;;;;;;3.60;0.50;;;;;;;14.98;100.00;95639.00;4357489;32;20202;-65
2022/10/02 10:56:37;;;;;;;0.17;0.17;;;;;;;15.09;100.00;95628.81;4316239;32;20205;-65
2022/10/02 11:00:01;;;;;;;0.33;0.33;;;;;;;15.17;100.00;95635.28;4357967;32;20181;-64
2022/10/02 11:03:23;;;;;;;0.17;0.17;;;;;;;15.27;100.00;95630.38;4311685;32;20204;-64
2022/10/02 11:06:02;;;;;;;0.10;0.10;;;;;;;15.31;100.00;95622.53;4268344;33;20221;-65
2022/10/02 11:09:05;;;;;;;0.33;0.33;;;;;;;15.41;100.00;95624.88;4331185;32;20301;-64
2022/10/02 11:11:45;;;;;;;0.73;0.73;;;;;;;15.48;100.00;95614.47;4333270;32;20189;-64
2022/10/02 11:14:58;;;;;;;0.73;0.73;;;;;;;15.61;100.00;95610.87;4307598;32;20190;-64
2022/10/02 11:17:59;;;;;;;0.40;0.40;;;;;;;15.61;100.00;95607.41;4288738;32;20188;-64
2022/10/02 11:20:58;;;;;;;0.30;0.30;;;;;;;15.69;100.00;95607.41;4353288;32;20227;-65
2022/10/02 11:23:54;;;;;;;0.47;0.47;;;;;;;15.69;100.00;95607.41;4362233;32;20211;-64
2022/10/02 11:27:05;;;;;;;0.80;0.77;;;;;;;15.65;100.00;95605.66;4377673;32;20187;-64
2022/10/02 11:29:58;;;;;;;0.53;0.53;;;;;;;15.62;100.00;95622.34;4383301;32;20188;-64
2022/10/02 11:32:53;;;;;;;0.40;0.40;;;;;;;15.64;100.00;95602.22;4393190;32;20202;-64
2022/10/02 11:36:01;;;;;;;1.30;0.47;;;;;;;15.84;100.00;95598.06;4383401;32;20191;-65
2022/10/02 11:39:05;;;;;;;0.10;0.10;;;;;;;15.84;99.46;95579.34;4370326;32;20211;-64
2022/10/02 11:42:13;;;;;;;0.30;0.30;;;;;;;15.98;98.17;95571.13;4373483;32;20239;-64
2022/10/02 11:45:11;;;;;;;0.00;0.00;;;;;;;16.07;97.91;95572.66;4390832;32;20350;-65
2022/10/02 11:48:14;;;;;;;0.10;0.10;;;;;;;16.28;96.14;95569.25;4381999;32;20204;-64
2022/10/02 11:51:09;;;;;;;0.00;0.00;;;;;;;16.45;94.72;95567.25;4375093;32;20247;-64
2022/10/02 11:54:02;;;;;;;0.10;0.10;;;;;;;16.52;94.34;95564.06;4345200;32;20256;-64
2022/10/02 11:57:22;;;;;;;0.00;0.00;;;;;;;16.57;94.67;95552.38;4385487;32;20243;-64
2022/10/02 12:00:18;;;;;;;0.50;0.20;;;;;;;16.62;93.69;95555.66;4301499;32;20189;-64
2022/10/02 12:03:04;;;;;;;0.10;0.10;;;;;;;16.82;92.60;95546.09;4327798;32;20227;-65
2022/10/02 12:06:22;;;;;;;0.10;0.10;;;;;;;16.79;93.30;95552.09;4383047;32;20210;-64
2022/10/02 12:09:07;;;;;;;0.10;0.10;;;;;;;16.91;91.37;95546.00;4385858;32;20210;-65
2022/10/02 12:11:54;;;;;;;0.30;0.30;;;;;;;16.83;92.02;95551.09;4399864;32;20188;-65
2022/10/02 12:14:52;;;;;;;0.00;0.00;;;;;;;16.83;91.90;95540.38;4395387;32;20179;-65
2022/10/02 12:18:05;;;;;;;0.10;0.10;;;;;;;16.91;91.08;95535.28;4395456;32;20271;-65
2022/10/02 12:27:13;;;;;;;3.63;0.40;;;;;;;16.98;89.74;95525.63;4389273;32;20206;-64
2022/10/02 12:30:18;;;;;;;0.10;0.10;;;;;;;17.11;88.51;95527.22;4382999;32;20210;-64
2022/10/02 12:33:14;;;;;;;0.27;0.10;;;;;;;17.13;88.90;95511.59;4380154;32;20208;-64
2022/10/02 12:36:04;;;;;;;0.00;0.00;;;;;;;17.26;88.54;95517.00;4399875;32;20188;-64
2022/10/02 12:39:17;;;;;;;0.00;0.00;;;;;;;17.31;87.67;95522.94;4369994;32;20197;-65
2022/10/02 12:42:25;;;;;;;0.10;0.10;;;;;;;17.29;87.72;95500.25;4324827;32;20188;-64
2022/10/02 12:45:30;;;;;;;0.00;0.00;;;;;;;17.21;88.21;95503.81;4386853;32;20267;-64
2022/10/02 12:48:26;;;;;;;0.63;0.47;;;;;;;17.17;88.37;95491.06;4385624;32;20284;-65
2022/10/02 12:51:45;;;;;;;0.50;0.50;;;;;;;17.25;88.20;95507.41;4402689;32;20184;-64
2022/10/02 12:54:25;;;;;;;0.60;0.60;;;;;;;17.33;88.95;95498.47;4338411;33;20185;-64
2022/10/02 13:00:16;;;;;;;0.10;0.10;;;;;;;17.44;88.93;95496.94;4346245;32;20228;-65
2022/10/02 13:03:20;;;;;;;0.47;0.20;;;;;;;17.43;88.78;95492.69;4348248;32;20205;-64
2022/10/02 13:06:39;;;;;;;0.03;0.03;;;;;;;17.50;87.58;95484.88;4374168;32;20279;-64
2022/10/02 13:09:23;;;;;;;0.00;0.00;;;;;;;17.50;87.48;95492.91;4343379;32;20218;-64
2022/10/02 13:12:12;;;;;;;0.40;0.40;;;;;;;17.46;87.99;95494.69;4397508;32;20241;-64
2022/10/02 13:15:25;;;;;;;0.00;0.00;;;;;;;17.40;88.58;95482.63;4393996;32;20271;-66
2022/10/02 13:18:17;;;;;;;0.17;0.13;;;;;;;17.38;88.07;95503.63;4350522;32;20201;-66